^^
Meteo Knjazevac Station Historical Data
Daily Summary for June 15, 2021 Units:  Metric    English   Both
Daily Weekly Monthly Yearly Custom
  High: Low: Average:
Temperature: 3.3 °C -0.5 °C 1.3 °C
Dew Point: 1.7 °C -1.4 °C 0.1 °C
Humidity: 94% 88% 92%
Wind Speed: 8km/h 0km/h 3.4km/h
Wind Gust: 14.5km/h - -
Wind- - SSW
Pressure: 1026.6 hPa 1023.9 hPa -
Precipitation: 0 mm    
Historical Graphs
 
 
Tabular Data for June 15, 2021
Time Temperature Dew Point Pressure Wind Wind Speed Wind Gust Humidity Rainfall Rate (Hourly) solar Conditions
00:00 1.2 °C 0.2 °C 1023.9 hPa WSW 4.8 km/h 9.7 km/h 93% 0 mm 0 W/m2
00:10 1.2 °C 0.3 °C 1023.9 hPa SW 3.2 km/h 8 km/h 94% 0 mm 0 W/m2
00:20 1.2 °C 0.3 °C 1023.9 hPa SW 3.2 km/h 8 km/h 94% 0 mm 0 W/m2
00:30 1.1 °C 0.1 °C 1023.9 hPa SW 3.2 km/h 9.7 km/h 93% 0 mm 0 W/m2
00:40 1.1 °C 0.1 °C 1023.9 hPa Calm   6.4 km/h 93% 0 mm 0 W/m2
00:50 1.1 °C 0.1 °C 1023.9 hPa WSW 3.2 km/h 8 km/h 93% 0 mm 0 W/m2
01:00 1 °C 0 °C 1023.9 hPa SW 4.8 km/h 9.7 km/h 93% 0 mm 0 W/m2
01:10 1 °C -0.3 °C 1023.9 hPa SW 8 km/h 9.7 km/h 91% 0 mm 0 W/m2
01:20 0.9 °C -0.4 °C 1023.9 hPa SW 4.8 km/h 9.7 km/h 91% 0 mm 0 W/m2
01:30 0.9 °C -0.4 °C 1023.9 hPa SW 4.8 km/h 11.3 km/h 91% 0 mm 0 W/m2
01:40 0.9 °C -0.4 °C 1023.9 hPa SW 4.8 km/h 9.7 km/h 91% 0 mm 0 W/m2
01:50 0.7 °C -0.6 °C 1023.9 hPa WSW 8 km/h 11.3 km/h 91% 0 mm 0 W/m2
02:00 0.5 °C -0.8 °C 1023.9 hPa WSW 4.8 km/h 9.7 km/h 91% 0 mm 0 W/m2
02:10 0.4 °C -0.9 °C 1023.9 hPa WSW 3.2 km/h 8 km/h 91% 0 mm 0 W/m2
02:20 0.2 °C -1.1 °C 1023.9 hPa WSW 1.6 km/h 8 km/h 91% 0 mm 0 W/m2
02:30 0.2 °C -1.1 °C 1023.9 hPa WSW 3.2 km/h 11.3 km/h 91% 0 mm 0 W/m2
02:40 0 °C -1.3 °C 1023.9 hPa WSW 3.2 km/h 6.4 km/h 91% 0 mm 0 W/m2
02:50 -0.1 °C -1.1 °C 1023.9 hPa WSW 3.2 km/h 4.8 km/h 93% 0 mm 0 W/m2
03:00 -0.2 °C -1.2 °C 1023.9 hPa West 3.2 km/h 8 km/h 93% 0 mm 0 W/m2
03:10 -0.3 °C -1.3 °C 1023.9 hPa WSW 3.2 km/h 8 km/h 93% 0 mm 0 W/m2
03:20 -0.4 °C -1.4 °C 1023.9 hPa SW 4.8 km/h 9.7 km/h 93% 0 mm 0 W/m2
03:30 -0.4 °C -1.4 °C 1023.9 hPa SW 4.8 km/h 11.3 km/h 93% 0 mm 0 W/m2
03:40 -0.5 °C -1.3 °C 1023.9 hPa WSW 3.2 km/h 11.3 km/h 94% 0 mm 0 W/m2
03:50 -0.5 °C -1.3 °C 1023.9 hPa SSW 3.2 km/h 6.4 km/h 94% 0 mm 0 W/m2
04:00 -0.4 °C -1.2 °C 1024.3 hPa NW 3.2 km/h 6.4 km/h 94% 0 mm 0 W/m2
04:10 -0.4 °C -1.2 °C 1023.9 hPa SW 4.8 km/h 9.7 km/h 94% 0 mm 0 W/m2
04:20 -0.3 °C -1.2 °C 1023.9 hPa WSW 4.8 km/h 11.3 km/h 94% 0 mm 0 W/m2
04:30 -0.2 °C -1.1 °C 1023.9 hPa WSW 4.8 km/h 8 km/h 94% 0 mm 0 W/m2
04:40 -0.2 °C -1.1 °C 1023.9 hPa WSW 3.2 km/h 8 km/h 94% 0 mm 0 W/m2
04:50 -0.2 °C -1.1 °C 1023.9 hPa SW 1.6 km/h 4.8 km/h 94% 0 mm 0 W/m2
05:00 -0.1 °C -0.9 °C 1024.3 hPa Calm   3.2 km/h 94% 0 mm 0 W/m2
05:10 -0.1 °C -0.9 °C 1024.3 hPa West 1.6 km/h 3.2 km/h 94% 0 mm 0 W/m2
05:20 0 °C -0.8 °C 1024.3 hPa WSW 1.6 km/h 4.8 km/h 94% 0 mm 0 W/m2
05:30 0 °C -0.8 °C 1024.3 hPa South 1.6 km/h 4.8 km/h 94% 0 mm 0 W/m2
05:40 0.1 °C -0.8 °C 1024.3 hPa WSW 4.8 km/h 9.7 km/h 94% 0 mm 0 W/m2
05:50 0.1 °C -0.8 °C 1024.3 hPa WSW 4.8 km/h 9.7 km/h 94% 0 mm 0 W/m2
06:00 0.2 °C -0.7 °C 1024.3 hPa WSW 3.2 km/h 8 km/h 94% 0 mm 0 W/m2
06:10 0.2 °C -0.7 °C 1024.3 hPa WSW 3.2 km/h 4.8 km/h 94% 0 mm 0 W/m2
06:20 0.2 °C -0.6 °C 1024.3 hPa SW 1.6 km/h 8 km/h 94% 0 mm 0 W/m2
06:30 0.3 °C -0.6 °C 1024.3 hPa WSW 1.6 km/h 4.8 km/h 94% 0 mm 0 W/m2
06:40 0.3 °C -0.6 °C 1024.3 hPa Calm   4.8 km/h 94% 0 mm 0 W/m2
06:50 0.4 °C -0.4 °C 1024.3 hPa Calm   3.2 km/h 94% 0 mm 0 W/m2
07:00 0.4 °C -0.4 °C 1024.6 hPa SW 3.2 km/h 6.4 km/h 94% 0 mm 1 W/m2
07:10 0.5 °C -0.4 °C 1024.6 hPa WSW 1.6 km/h 4.8 km/h 94% 0 mm 2 W/m2
07:20 0.5 °C -0.3 °C 1024.6 hPa NE 3.2 km/h 4.8 km/h 94% 0 mm 3 W/m2
07:30 0.5 °C -0.3 °C 1024.6 hPa East 1.6 km/h 4.8 km/h 94% 0 mm 5 W/m2
07:40 0.6 °C -0.3 °C 1024.6 hPa South 3.2 km/h 4.8 km/h 94% 0 mm 6 W/m2
07:50 0.6 °C -0.4 °C 1024.6 hPa East 1.6 km/h 9.7 km/h 93% 0 mm 7 W/m2
08:00 0.7 °C -0.3 °C 1024.9 hPa East 3.2 km/h 9.7 km/h 93% 0 mm 8 W/m2
08:10 0.7 °C -0.3 °C 1024.9 hPa Calm   4.8 km/h 93% 0 mm 10 W/m2
08:20 0.8 °C -0.1 °C 1024.9 hPa ESE 3.2 km/h 9.7 km/h 94% 0 mm 11 W/m2
08:30 0.8 °C -0.2 °C 1025.3 hPa ESE 4.8 km/h 9.7 km/h 93% 0 mm 13 W/m2
08:40 0.9 °C -0.1 °C 1025.3 hPa SE 1.6 km/h 8 km/h 93% 0 mm 15 W/m2
08:50 0.9 °C -0.1 °C 1025.3 hPa WNW 1.6 km/h 3.2 km/h 93% 0 mm 18 W/m2
09:00 0.9 °C -0.1 °C 1025.3 hPa Calm   6.4 km/h 93% 0 mm 21 W/m2
09:10 1 °C 0 °C 1025.3 hPa SSE 1.6 km/h 9.7 km/h 93% 0 mm 23 W/m2
09:20 1 °C 0 °C 1025.3 hPa WSW 3.2 km/h 8 km/h 93% 0 mm 31 W/m2
09:30 1 °C 0 °C 1025.3 hPa Calm   6.4 km/h 93% 0 mm 36 W/m2
09:40 1.1 °C 0.1 °C 1025.3 hPa Calm   3.2 km/h 93% 0 mm 36 W/m2
09:50 1.1 °C 0.1 °C 1025.3 hPa Calm   3.2 km/h 93% 0 mm 41 W/m2
10:00 1.2 °C 0.2 °C 1025.3 hPa Calm   4.8 km/h 93% 0 mm 43 W/m2
10:10 1.2 °C 0.2 °C 1025.3 hPa East 3.2 km/h 8 km/h 93% 0 mm 42 W/m2
10:20 1.4 °C 0.4 °C 1025.3 hPa SE 1.6 km/h 9.7 km/h 93% 0 mm 55 W/m2
10:30 1.4 °C 0.4 °C 1025.3 hPa SSW 1.6 km/h 4.8 km/h 93% 0 mm 55 W/m2
10:40 1.5 °C 0.5 °C 1025.3 hPa South 1.6 km/h 4.8 km/h 93% 0 mm 63 W/m2
10:50 1.6 °C 0.6 °C 1024.9 hPa SSW 3.2 km/h 6.4 km/h 93% 0 mm 73 W/m2
11:00 1.7 °C 0.4 °C 1024.9 hPa SW 1.6 km/h 6.4 km/h 91% 0 mm 78 W/m2
11:10 1.8 °C 0.5 °C 1024.9 hPa WSW 1.6 km/h 4.8 km/h 91% 0 mm 78 W/m2
11:20 1.9 °C 0.4 °C 1024.9 hPa Calm   3.2 km/h 90% 0 mm 83 W/m2
11:30 2 °C 0.6 °C 1024.9 hPa ENE 1.6 km/h 6.4 km/h 90% 0 mm 86 W/m2
11:40 2.1 °C 0.8 °C 1024.9 hPa East 1.6 km/h 6.4 km/h 91% 0 mm 86 W/m2
11:50 2.2 °C 0.9 °C 1024.9 hPa SE 4.8 km/h 9.7 km/h 91% 0 mm 86 W/m2
12:00 2.2 °C 0.7 °C 1024.9 hPa ESE 1.6 km/h 11.3 km/h 90% 0 mm 92 W/m2
12:10 2.3 °C 0.8 °C 1024.9 hPa ESE 1.6 km/h 11.3 km/h 90% 0 mm 91 W/m2
12:20 2.4 °C 0.9 °C 1024.9 hPa East 3.2 km/h 9.7 km/h 90% 0 mm 87 W/m2
12:30 2.5 °C 1 °C 1024.9 hPa ESE 3.2 km/h 11.3 km/h 90% 0 mm 89 W/m2
12:40 2.5 °C 1 °C 1024.9 hPa ESE 4.8 km/h 11.3 km/h 90% 0 mm 90 W/m2
12:50 2.6 °C 1.1 °C 1024.9 hPa SE 4.8 km/h 11.3 km/h 90% 0 mm 98 W/m2
13:00 2.7 °C 1.1 °C 1024.9 hPa SE 4.8 km/h 11.3 km/h 89% 0 mm 109 W/m2
13:10 2.7 °C 1.1 °C 1024.9 hPa SE 4.8 km/h 12.9 km/h 89% 0 mm 118 W/m2
13:20 2.8 °C 1.2 °C 1024.9 hPa ESE 3.2 km/h 12.9 km/h 89% 0 mm 119 W/m2
13:30 2.9 °C 1.3 °C 1024.6 hPa SE 8 km/h 11.3 km/h 89% 0 mm 117 W/m2
13:40 3 °C 1.4 °C 1024.6 hPa ESE 4.8 km/h 11.3 km/h 89% 0 mm 104 W/m2
13:50 3 °C 1.4 °C 1024.6 hPa SE 4.8 km/h 11.3 km/h 89% 0 mm 98 W/m2
14:00 3.1 °C 1.4 °C 1024.6 hPa SSW 4.8 km/h 9.7 km/h 89% 0 mm 96 W/m2
14:10 3.2 °C 1.6 °C 1024.6 hPa SSW 3.2 km/h 9.7 km/h 89% 0 mm 77 W/m2
14:20 3 °C 1.2 °C 1024.6 hPa SW 4.8 km/h 12.9 km/h 88% 0 mm 117 W/m2
14:30 3.1 °C 1.4 °C 1024.6 hPa SW 8 km/h 11.3 km/h 89% 0 mm 116 W/m2
14:40 3.3 °C 1.7 °C 1024.6 hPa SW 4.8 km/h 11.3 km/h 89% 0 mm 97 W/m2
14:50 3.3 °C 1.5 °C 1024.6 hPa SSW 4.8 km/h 11.3 km/h 88% 0 mm 55 W/m2
15:00 3.2 °C 1.4 °C 1024.6 hPa SSW 3.2 km/h 12.9 km/h 88% 0 mm 32 W/m2
15:10 3.1 °C 1.3 °C 1024.9 hPa South 3.2 km/h 9.7 km/h 88% 0 mm 25 W/m2
15:20 3 °C 1.4 °C 1024.9 hPa SSW 4.8 km/h 8 km/h 89% 0 mm 16 W/m2
15:30 3 °C 1.4 °C 1024.9 hPa SSW 3.2 km/h 8 km/h 89% 0 mm 8 W/m2
15:40 2.9 °C 1.3 °C 1024.9 hPa SW 1.6 km/h 6.4 km/h 89% 0 mm 3 W/m2
15:50 2.8 °C 1.2 °C 1025.3 hPa SSW 3.2 km/h 6.4 km/h 89% 0 mm 2 W/m2
16:00 2.7 °C 1.2 °C 1025.3 hPa SSW 1.6 km/h 6.4 km/h 90% 0 mm 0 W/m2
16:10 2.6 °C 1.1 °C 1025.3 hPa SW 1.6 km/h 8 km/h 90% 0 mm 0 W/m2
16:20 2.5 °C 1 °C 1025.3 hPa SW 4.8 km/h 9.7 km/h 90% 0 mm 0 W/m2
16:30 2.4 °C 0.9 °C 1025.3 hPa SW 4.8 km/h 11.3 km/h 90% 0 mm 0 W/m2
16:40 2.2 °C 0.7 °C 1025.3 hPa SW 4.8 km/h 11.3 km/h 90% 0 mm 0 W/m2
16:50 2.2 °C 0.9 °C 1025.6 hPa SSW 3.2 km/h 9.7 km/h 91% 0 mm 0 W/m2
17:00 2.1 °C 0.8 °C 1025.3 hPa SW 4.8 km/h 11.3 km/h 91% 0 mm 0 W/m2
17:10 2 °C 0.7 °C 1025.6 hPa SW 4.8 km/h 8 km/h 91% 0 mm 0 W/m2
17:20 1.9 °C 0.6 °C 1025.6 hPa SW 3.2 km/h 8 km/h 91% 0 mm 0 W/m2
17:30 1.9 °C 0.6 °C 1025.6 hPa SW 3.2 km/h 8 km/h 91% 0 mm 0 W/m2
17:40 1.8 °C 0.5 °C 1025.6 hPa SSW 4.8 km/h 9.7 km/h 91% 0 mm 0 W/m2
17:50 1.8 °C 0.5 °C 1025.6 hPa SW 3.2 km/h 9.7 km/h 91% 0 mm 0 W/m2
18:00 1.7 °C 0.4 °C 1025.6 hPa SW 4.8 km/h 11.3 km/h 91% 0 mm 0 W/m2
18:10 1.8 °C 0.5 °C 1025.6 hPa SW 8 km/h 12.9 km/h 91% 0 mm 0 W/m2
18:20 1.7 °C 0.4 °C 1025.6 hPa SW 8 km/h 14.5 km/h 91% 0 mm 0 W/m2
18:30 1.6 °C 0.6 °C 1025.6 hPa SW 8 km/h 11.3 km/h 93% 0 mm 0 W/m2
18:50 1.6 °C 0.6 °C 1026 hPa SW 4.8 km/h 12.9 km/h 93% 0 mm 0 W/m2
19:00 1.5 °C 0.5 °C 1026 hPa SW 8 km/h 11.3 km/h 93% 0 mm 0 W/m2
19:10 1.5 °C 0.5 °C 1026 hPa SW 8 km/h 11.3 km/h 93% 0 mm 0 W/m2
19:20 1.5 °C 0.5 °C 1026 hPa SW 3.2 km/h 11.3 km/h 93% 0 mm 0 W/m2
19:30 1.5 °C 0.5 °C 1026 hPa SSW 3.2 km/h 9.7 km/h 93% 0 mm 0 W/m2
19:40 1.4 °C 0.4 °C 1026 hPa SSW 3.2 km/h 8 km/h 93% 0 mm 0 W/m2
19:50 1.4 °C 0.4 °C 1026 hPa SW 3.2 km/h 11.3 km/h 93% 0 mm 0 W/m2
20:00 1.4 °C 0.4 °C 1026 hPa SSW 3.2 km/h 8 km/h 93% 0 mm 0 W/m2
20:10 1.3 °C 0.3 °C 1026 hPa SW 3.2 km/h 9.7 km/h 93% 0 mm 0 W/m2
20:20 1.3 °C 0.3 °C 1026 hPa SW 1.6 km/h 8 km/h 93% 0 mm 0 W/m2
20:30 1.2 °C 0.2 °C 1026 hPa SSW 3.2 km/h 9.7 km/h 93% 0 mm 0 W/m2
20:50 1.1 °C 0.1 °C 1026.3 hPa South 4.8 km/h 12.9 km/h 93% 0 mm 0 W/m2
21:00 1.1 °C 0.1 °C 1026.3 hPa South 4.8 km/h 11.3 km/h 93% 0 mm 0 W/m2
21:10 1.1 °C 0.1 °C 1026.3 hPa SSW 3.2 km/h 11.3 km/h 93% 0 mm 0 W/m2
21:20 1.1 °C 0.1 °C 1026.6 hPa SSW 3.2 km/h 9.7 km/h 93% 0 mm 0 W/m2
21:30 1.1 °C 0.1 °C 1026.6 hPa South 4.8 km/h 9.7 km/h 93% 0 mm 0 W/m2
21:40 1.1 °C 0.1 °C 1026.6 hPa South 4.8 km/h 11.3 km/h 93% 0 mm 0 W/m2
21:50 1.1 °C -0.2 °C 1026.6 hPa South 3.2 km/h 11.3 km/h 91% 0 mm 0 W/m2
22:00 1.1 °C -0.2 °C 1026.6 hPa SSW 3.2 km/h 8 km/h 91% 0 mm 0 W/m2
22:10 1.1 °C -0.2 °C 1026.6 hPa SSE 3.2 km/h 8 km/h 91% 0 mm 0 W/m2
22:20 1 °C -0.3 °C 1026.6 hPa South 4.8 km/h 8 km/h 91% 0 mm 0 W/m2
22:30 1 °C -0.3 °C 1026.6 hPa South 3.2 km/h 11.3 km/h 91% 0 mm 0 W/m2
22:40 1 °C -0.4 °C 1026.6 hPa South 3.2 km/h 9.7 km/h 90% 0 mm 0 W/m2
22:50 1 °C -0.4 °C 1026.6 hPa South 3.2 km/h 8 km/h 90% 0 mm 0 W/m2
23:00 1.1 °C -0.4 °C 1026.6 hPa SSE 1.6 km/h 8 km/h 90% 0 mm 0 W/m2
23:10 1.1 °C -0.3 °C 1026.6 hPa Calm   11.3 km/h 90% 0 mm 0 W/m2
23:20 1.1 °C -0.3 °C 1026.6 hPa SSE 1.6 km/h 9.7 km/h 90% 0 mm 0 W/m2
23:30 1.1 °C -0.3 °C 1026.6 hPa South 4.8 km/h 11.3 km/h 90% 0 mm 0 W/m2
23:40 1.1 °C -0.3 °C 1026.6 hPa SSW 3.2 km/h 8 km/h 90% 0 mm 0 W/m2
23:50 1.1 °C -0.2 °C 1026.6 hPa SW 1.6 km/h 8 km/h 91% 0 mm 0 W/m2
Knjazevac, Serbia
Compliments of Weather Underground - 2 mb